Terminal Aerodrome Forecast
Issued by NWS Cleveland, OH

Home | Current Version | Previous Version | Graphics & Text | Print | Product List | Glossary On
Versions: 1 2 3 4 5 6 7 8 9 10 11 12 13 14 15
000
FTUS41 KCLE 180946 AAA
TAFCAK
TAF AMD
KCAK 180946Z 1810/1906 VRB03KT P6SM SKC
      TEMPO 1810/1812 3SM BR
     FM181300 18004KT P6SM SCT250
     FM181800 25004KT P6SM BKN250
     FM182100 02006KT P6SM BKN070=

USA.gov is the U.S. government's official web portal to all federal, state and local government web resources and services.